sensor_id;sensor_type;location;lat;lon;timestamp;P1;durP1;ratioP1;P2;durP2;ratioP2
52104;SDS011;38103;42.776;23.112;2023-03-23T00:01:00;35.85;;;20.33;;
52104;SDS011;38103;42.776;23.112;2023-03-23T00:03:26;40.85;;;20.90;;
52104;SDS011;38103;42.776;23.112;2023-03-23T00:05:53;42.38;;;22.23;;
52104;SDS011;38103;42.776;23.112;2023-03-23T00:08:24;43.75;;;21.58;;
52104;SDS011;38103;42.776;23.112;2023-03-23T00:10:51;39.33;;;20.92;;
52104;SDS011;38103;42.776;23.112;2023-03-23T00:13:26;40.30;;;21.48;;
52104;SDS011;38103;42.776;23.112;2023-03-23T00:15:53;38.30;;;20.80;;
52104;SDS011;38103;42.776;23.112;2023-03-23T00:18:19;36.80;;;19.83;;
52104;SDS011;38103;42.776;23.112;2023-03-23T00:20:52;37.53;;;20.33;;
52104;SDS011;38103;42.776;23.112;2023-03-23T00:23:19;38.83;;;20.60;;
52104;SDS011;38103;42.776;23.112;2023-03-23T00:25:55;36.42;;;18.90;;
52104;SDS011;38103;42.776;23.112;2023-03-23T00:28:24;36.03;;;19.27;;
52104;SDS011;38103;42.776;23.112;2023-03-23T00:30:57;37.28;;;19.08;;
52104;SDS011;38103;42.776;23.112;2023-03-23T00:33:29;31.92;;;17.85;;
52104;SDS011;38103;42.776;23.112;2023-03-23T00:35:58;28.40;;;16.38;;
52104;SDS011;38103;42.776;23.112;2023-03-23T00:38:24;28.60;;;16.35;;
52104;SDS011;38103;42.776;23.112;2023-03-23T00:40:49;30.27;;;16.52;;
52104;SDS011;38103;42.776;23.112;2023-03-23T00:43:16;34.55;;;17.98;;
52104;SDS011;38103;42.776;23.112;2023-03-23T00:45:43;34.38;;;19.58;;
52104;SDS011;38103;42.776;23.112;2023-03-23T00:48:10;32.67;;;18.73;;
52104;SDS011;38103;42.776;23.112;2023-03-23T00:50:38;35.55;;;18.27;;
52104;SDS011;38103;42.776;23.112;2023-03-23T00:53:04;31.08;;;16.98;;
52104;SDS011;38103;42.776;23.112;2023-03-23T00:55:30;32.13;;;17.20;;
52104;SDS011;38103;42.776;23.112;2023-03-23T00:57:55;29.65;;;16.63;;
52104;SDS011;38103;42.776;23.112;2023-03-23T01:00:21;32.22;;;17.63;;
52104;SDS011;38103;42.776;23.112;2023-03-23T01:02:47;32.10;;;18.00;;
52104;SDS011;38103;42.776;23.112;2023-03-23T01:05:13;33.38;;;18.60;;
52104;SDS011;38103;42.776;23.112;2023-03-23T01:07:40;35.80;;;20.20;;
52104;SDS011;38103;42.776;23.112;2023-03-23T01:10:09;36.50;;;20.85;;
52104;SDS011;38103;42.776;23.112;2023-03-23T01:12:38;33.20;;;19.08;;
52104;SDS011;38103;42.776;23.112;2023-03-23T01:15:04;42.38;;;22.42;;
52104;SDS011;38103;42.776;23.112;2023-03-23T01:17:30;45.17;;;24.15;;
52104;SDS011;38103;42.776;23.112;2023-03-23T01:19:55;47.38;;;22.92;;
52104;SDS011;38103;42.776;23.112;2023-03-23T01:22:21;43.83;;;23.35;;
52104;SDS011;38103;42.776;23.112;2023-03-23T01:24:47;42.10;;;23.08;;
52104;SDS011;38103;42.776;23.112;2023-03-23T01:27:12;36.80;;;21.15;;
52104;SDS011;38103;42.776;23.112;2023-03-23T01:29:37;44.47;;;24.17;;
52104;SDS011;38103;42.776;23.112;2023-03-23T01:32:03;40.92;;;23.30;;
52104;SDS011;38103;42.776;23.112;2023-03-23T01:34:28;39.92;;;20.88;;
52104;SDS011;38103;42.776;23.112;2023-03-23T01:36:53;39.65;;;21.70;;
52104;SDS011;38103;42.776;23.112;2023-03-23T01:39:19;40.90;;;23.52;;
52104;SDS011;38103;42.776;23.112;2023-03-23T01:41:45;41.20;;;24.48;;
52104;SDS011;38103;42.776;23.112;2023-03-23T01:46:42;40.20;;;22.38;;
52104;SDS011;38103;42.776;23.112;2023-03-23T01:49:10;41.78;;;22.08;;
52104;SDS011;38103;42.776;23.112;2023-03-23T01:51:42;41.30;;;23.55;;
52104;SDS011;38103;42.776;23.112;2023-03-23T01:54:12;44.08;;;23.55;;
52104;SDS011;38103;42.776;23.112;2023-03-23T01:56:45;40.20;;;22.45;;
52104;SDS011;38103;42.776;23.112;2023-03-23T01:59:13;43.35;;;23.58;;
52104;SDS011;38103;42.776;23.112;2023-03-23T02:01:40;45.47;;;26.10;;
52104;SDS011;38103;42.776;23.112;2023-03-23T02:04:10;51.40;;;25.65;;
52104;SDS011;38103;42.776;23.112;2023-03-23T02:06:38;54.53;;;30.08;;
52104;SDS011;38103;42.776;23.112;2023-03-23T02:09:03;61.78;;;32.15;;
52104;SDS011;38103;42.776;23.112;2023-03-23T02:11:31;63.42;;;33.25;;
52104;SDS011;38103;42.776;23.112;2023-03-23T02:13:57;69.18;;;34.20;;
52104;SDS011;38103;42.776;23.112;2023-03-23T02:19:50;78.18;;;36.42;;
52104;SDS011;38103;42.776;23.112;2023-03-23T02:30:11;69.40;;;33.20;;
52104;SDS011;38103;42.776;23.112;2023-03-23T02:32:49;78.18;;;37.38;;
52104;SDS011;38103;42.776;23.112;2023-03-23T02:35:28;82.40;;;37.72;;
52104;SDS011;38103;42.776;23.112;2023-03-23T02:38:04;86.40;;;38.95;;
52104;SDS011;38103;42.776;23.112;2023-03-23T02:40:41;93.25;;;40.20;;
52104;SDS011;38103;42.776;23.112;2023-03-23T02:43:12;88.47;;;37.45;;
52104;SDS011;38103;42.776;23.112;2023-03-23T02:45:40;85.55;;;37.47;;
52104;SDS011;38103;42.776;23.112;2023-03-23T02:48:08;76.75;;;37.42;;
52104;SDS011;38103;42.776;23.112;2023-03-23T02:50:36;80.45;;;38.15;;
52104;SDS011;38103;42.776;23.112;2023-03-23T02:53:04;73.80;;;36.60;;
52104;SDS011;38103;42.776;23.112;2023-03-23T02:55:34;75.32;;;34.60;;
52104;SDS011;38103;42.776;23.112;2023-03-23T02:58:07;69.95;;;34.65;;
52104;SDS011;38103;42.776;23.112;2023-03-23T03:00:33;72.82;;;33.50;;
52104;SDS011;38103;42.776;23.112;2023-03-23T03:02:59;73.88;;;34.83;;
52104;SDS011;38103;42.776;23.112;2023-03-23T03:05:26;70.60;;;33.95;;
52104;SDS011;38103;42.776;23.112;2023-03-23T03:18:46;63.72;;;30.05;;
52104;SDS011;38103;42.776;23.112;2023-03-23T03:21:13;63.83;;;31.02;;
52104;SDS011;38103;42.776;23.112;2023-03-23T03:23:42;61.80;;;28.33;;
52104;SDS011;38103;42.776;23.112;2023-03-23T03:26:10;54.45;;;27.85;;
52104;SDS011;38103;42.776;23.112;2023-03-23T03:28:43;49.87;;;26.90;;
52104;SDS011;38103;42.776;23.112;2023-03-23T03:31:12;46.40;;;25.27;;
52104;SDS011;38103;42.776;23.112;2023-03-23T03:33:40;60.42;;;29.75;;
52104;SDS011;38103;42.776;23.112;2023-03-23T03:36:06;59.90;;;29.75;;
52104;SDS011;38103;42.776;23.112;2023-03-23T03:38:46;54.63;;;27.08;;
52104;SDS011;38103;42.776;23.112;2023-03-23T03:41:14;59.13;;;28.92;;
52104;SDS011;38103;42.776;23.112;2023-03-23T03:43:40;62.92;;;28.88;;
52104;SDS011;38103;42.776;23.112;2023-03-23T03:46:05;72.78;;;32.72;;
52104;SDS011;38103;42.776;23.112;2023-03-23T03:48:31;71.28;;;34.03;;
52104;SDS011;38103;42.776;23.112;2023-03-23T03:50:57;79.07;;;34.70;;
52104;SDS011;38103;42.776;23.112;2023-03-23T03:53:26;74.38;;;32.75;;
52104;SDS011;38103;42.776;23.112;2023-03-23T03:55:52;75.50;;;31.20;;
52104;SDS011;38103;42.776;23.112;2023-03-23T03:58:20;78.20;;;33.05;;
52104;SDS011;38103;42.776;23.112;2023-03-23T04:00:47;73.93;;;31.67;;
52104;SDS011;38103;42.776;23.112;2023-03-23T04:03:15;72.88;;;32.55;;
52104;SDS011;38103;42.776;23.112;2023-03-23T04:05:41;73.82;;;33.70;;
52104;SDS011;38103;42.776;23.112;2023-03-23T04:08:09;86.82;;;36.08;;
52104;SDS011;38103;42.776;23.112;2023-03-23T04:10:36;87.82;;;36.08;;
52104;SDS011;38103;42.776;23.112;2023-03-23T04:13:02;82.28;;;35.80;;
52104;SDS011;38103;42.776;23.112;2023-03-23T04:15:29;92.95;;;39.50;;
52104;SDS011;38103;42.776;23.112;2023-03-23T04:17:54;106.50;;;42.05;;
52104;SDS011;38103;42.776;23.112;2023-03-23T04:20:21;101.95;;;41.20;;
52104;SDS011;38103;42.776;23.112;2023-03-23T04:22:47;95.88;;;37.53;;
52104;SDS011;38103;42.776;23.112;2023-03-23T04:25:18;72.70;;;31.75;;
52104;SDS011;38103;42.776;23.112;2023-03-23T04:27:49;73.63;;;31.02;;
52104;SDS011;38103;42.776;23.112;2023-03-23T04:30:19;68.18;;;30.63;;
52104;SDS011;38103;42.776;23.112;2023-03-23T04:32:46;66.60;;;31.42;;
52104;SDS011;38103;42.776;23.112;2023-03-23T04:35:15;58.65;;;28.30;;
52104;SDS011;38103;42.776;23.112;2023-03-23T04:37:41;60.17;;;28.77;;
52104;SDS011;38103;42.776;23.112;2023-03-23T04:40:07;55.03;;;27.90;;
52104;SDS011;38103;42.776;23.112;2023-03-23T04:42:39;50.03;;;26.30;;
52104;SDS011;38103;42.776;23.112;2023-03-23T04:45:06;54.65;;;26.60;;
52104;SDS011;38103;42.776;23.112;2023-03-23T04:47:34;47.60;;;25.30;;
52104;SDS011;38103;42.776;23.112;2023-03-23T04:50:09;45.15;;;23.63;;
52104;SDS011;38103;42.776;23.112;2023-03-23T04:52:37;49.35;;;25.85;;
52104;SDS011;38103;42.776;23.112;2023-03-23T04:55:06;60.40;;;28.35;;
52104;SDS011;38103;42.776;23.112;2023-03-23T04:57:33;68.97;;;31.08;;
52104;SDS011;38103;42.776;23.112;2023-03-23T05:00:00;81.15;;;34.58;;
52104;SDS011;38103;42.776;23.112;2023-03-23T05:02:33;90.70;;;34.97;;
52104;SDS011;38103;42.776;23.112;2023-03-23T05:04:59;93.20;;;35.22;;
52104;SDS011;38103;42.776;23.112;2023-03-23T05:07:24;91.60;;;36.13;;
52104;SDS011;38103;42.776;23.112;2023-03-23T05:09:50;97.75;;;37.90;;
52104;SDS011;38103;42.776;23.112;2023-03-23T05:12:15;91.30;;;36.22;;
52104;SDS011;38103;42.776;23.112;2023-03-23T05:14:41;95.35;;;35.00;;
52104;SDS011;38103;42.776;23.112;2023-03-23T05:17:07;140.85;;;34.45;;
52104;SDS011;38103;42.776;23.112;2023-03-23T05:19:34;83.03;;;27.55;;
52104;SDS011;38103;42.776;23.112;2023-03-23T05:22:01;62.53;;;27.00;;
52104;SDS011;38103;42.776;23.112;2023-03-23T05:24:31;71.93;;;30.25;;
52104;SDS011;38103;42.776;23.112;2023-03-23T05:26:57;72.25;;;31.75;;
52104;SDS011;38103;42.776;23.112;2023-03-23T05:29:27;75.03;;;31.30;;
52104;SDS011;38103;42.776;23.112;2023-03-23T05:31:54;50.92;;;27.00;;
52104;SDS011;38103;42.776;23.112;2023-03-23T05:34:24;49.13;;;26.10;;
52104;SDS011;38103;42.776;23.112;2023-03-23T05:36:51;45.20;;;24.17;;
52104;SDS011;38103;42.776;23.112;2023-03-23T05:39:18;34.35;;;20.85;;
52104;SDS011;38103;42.776;23.112;2023-03-23T05:41:44;34.42;;;20.60;;
52104;SDS011;38103;42.776;23.112;2023-03-23T05:44:09;29.80;;;18.10;;
52104;SDS011;38103;42.776;23.112;2023-03-23T05:46:35;31.50;;;18.95;;
52104;SDS011;38103;42.776;23.112;2023-03-23T05:49:00;30.77;;;19.73;;
52104;SDS011;38103;42.776;23.112;2023-03-23T05:51:27;29.05;;;17.65;;
52104;SDS011;38103;42.776;23.112;2023-03-23T05:53:52;28.23;;;16.83;;
52104;SDS011;38103;42.776;23.112;2023-03-23T05:56:17;28.00;;;17.60;;
52104;SDS011;38103;42.776;23.112;2023-03-23T05:58:43;31.50;;;16.33;;
52104;SDS011;38103;42.776;23.112;2023-03-23T06:01:08;28.85;;;16.50;;
52104;SDS011;38103;42.776;23.112;2023-03-23T06:03:34;26.98;;;15.57;;
52104;SDS011;38103;42.776;23.112;2023-03-23T06:06:03;25.67;;;15.48;;
52104;SDS011;38103;42.776;23.112;2023-03-23T06:08:29;24.15;;;14.60;;
52104;SDS011;38103;42.776;23.112;2023-03-23T06:10:55;23.60;;;15.32;;
52104;SDS011;38103;42.776;23.112;2023-03-23T06:13:20;26.05;;;15.65;;
52104;SDS011;38103;42.776;23.112;2023-03-23T06:15:46;27.50;;;15.68;;
52104;SDS011;38103;42.776;23.112;2023-03-23T06:18:12;27.85;;;16.25;;
52104;SDS011;38103;42.776;23.112;2023-03-23T06:20:38;25.45;;;15.57;;
52104;SDS011;38103;42.776;23.112;2023-03-23T06:23:04;28.55;;;17.77;;
52104;SDS011;38103;42.776;23.112;2023-03-23T06:25:29;27.98;;;18.08;;
52104;SDS011;38103;42.776;23.112;2023-03-23T06:27:57;29.17;;;17.73;;
52104;SDS011;38103;42.776;23.112;2023-03-23T06:30:22;25.35;;;16.13;;
52104;SDS011;38103;42.776;23.112;2023-03-23T06:32:48;21.13;;;12.52;;
52104;SDS011;38103;42.776;23.112;2023-03-23T06:35:14;25.92;;;14.40;;
52104;SDS011;38103;42.776;23.112;2023-03-23T06:37:40;21.92;;;13.45;;
52104;SDS011;38103;42.776;23.112;2023-03-23T06:40:06;23.35;;;13.52;;
52104;SDS011;38103;42.776;23.112;2023-03-23T06:42:32;24.27;;;15.40;;
52104;SDS011;38103;42.776;23.112;2023-03-23T06:44:58;28.35;;;17.60;;
52104;SDS011;38103;42.776;23.112;2023-03-23T06:47:25;28.67;;;17.85;;
52104;SDS011;38103;42.776;23.112;2023-03-23T06:49:51;33.53;;;19.30;;
52104;SDS011;38103;42.776;23.112;2023-03-23T06:52:17;33.53;;;20.20;;
52104;SDS011;38103;42.776;23.112;2023-03-23T06:54:42;25.65;;;17.02;;
52104;SDS011;38103;42.776;23.112;2023-03-23T06:57:08;27.48;;;16.60;;
52104;SDS011;38103;42.776;23.112;2023-03-23T06:59:34;26.48;;;16.30;;
52104;SDS011;38103;42.776;23.112;2023-03-23T07:01:59;26.95;;;16.40;;
52104;SDS011;38103;42.776;23.112;2023-03-23T07:04:25;23.15;;;14.45;;
52104;SDS011;38103;42.776;23.112;2023-03-23T07:06:50;23.45;;;14.35;;
52104;SDS011;38103;42.776;23.112;2023-03-23T07:09:15;23.65;;;15.05;;
52104;SDS011;38103;42.776;23.112;2023-03-23T07:11:41;24.58;;;15.45;;
52104;SDS011;38103;42.776;23.112;2023-03-23T07:14:07;23.95;;;15.23;;
52104;SDS011;38103;42.776;23.112;2023-03-23T07:16:32;24.85;;;14.73;;
52104;SDS011;38103;42.776;23.112;2023-03-23T07:18:58;25.05;;;16.13;;
52104;SDS011;38103;42.776;23.112;2023-03-23T07:21:24;23.67;;;13.80;;
52104;SDS011;38103;42.776;23.112;2023-03-23T07:23:50;22.20;;;13.90;;
52104;SDS011;38103;42.776;23.112;2023-03-23T07:26:15;25.13;;;15.82;;
52104;SDS011;38103;42.776;23.112;2023-03-23T07:28:41;22.13;;;11.82;;
52104;SDS011;38103;42.776;23.112;2023-03-23T07:31:07;23.52;;;12.50;;
52104;SDS011;38103;42.776;23.112;2023-03-23T07:33:35;20.98;;;12.65;;
52104;SDS011;38103;42.776;23.112;2023-03-23T07:36:01;24.20;;;12.63;;
52104;SDS011;38103;42.776;23.112;2023-03-23T07:38:28;23.60;;;12.82;;
52104;SDS011;38103;42.776;23.112;2023-03-23T07:40:54;25.25;;;13.68;;
52104;SDS011;38103;42.776;23.112;2023-03-23T07:43:20;21.98;;;13.07;;
52104;SDS011;38103;42.776;23.112;2023-03-23T07:45:46;24.35;;;13.60;;
52104;SDS011;38103;42.776;23.112;2023-03-23T07:48:11;21.45;;;11.85;;
52104;SDS011;38103;42.776;23.112;2023-03-23T07:50:37;20.38;;;11.98;;
52104;SDS011;38103;42.776;23.112;2023-03-23T07:53:03;18.95;;;11.20;;
52104;SDS011;38103;42.776;23.112;2023-03-23T07:55:28;21.33;;;11.98;;
52104;SDS011;38103;42.776;23.112;2023-03-23T07:57:54;22.23;;;12.77;;
52104;SDS011;38103;42.776;23.112;2023-03-23T08:00:20;25.67;;;13.20;;
52104;SDS011;38103;42.776;23.112;2023-03-23T08:02:49;23.85;;;13.80;;
52104;SDS011;38103;42.776;23.112;2023-03-23T08:05:16;21.60;;;12.40;;
52104;SDS011;38103;42.776;23.112;2023-03-23T08:07:43;20.77;;;12.38;;
52104;SDS011;38103;42.776;23.112;2023-03-23T08:10:10;18.65;;;11.40;;
52104;SDS011;38103;42.776;23.112;2023-03-23T08:12:40;19.77;;;11.20;;
52104;SDS011;38103;42.776;23.112;2023-03-23T08:15:07;20.80;;;12.32;;
52104;SDS011;38103;42.776;23.112;2023-03-23T08:17:37;19.83;;;11.95;;
52104;SDS011;38103;42.776;23.112;2023-03-23T08:20:03;21.30;;;11.68;;
52104;SDS011;38103;42.776;23.112;2023-03-23T08:22:35;19.42;;;11.57;;
52104;SDS011;38103;42.776;23.112;2023-03-23T08:25:01;20.48;;;10.77;;
52104;SDS011;38103;42.776;23.112;2023-03-23T08:27:28;28.67;;;10.43;;
52104;SDS011;38103;42.776;23.112;2023-03-23T08:29:54;20.13;;;11.35;;
52104;SDS011;38103;42.776;23.112;2023-03-23T08:32:19;16.40;;;9.25;;
52104;SDS011;38103;42.776;23.112;2023-03-23T08:34:44;18.45;;;10.38;;
52104;SDS011;38103;42.776;23.112;2023-03-23T08:37:10;18.08;;;10.73;;
52104;SDS011;38103;42.776;23.112;2023-03-23T08:39:36;17.08;;;9.43;;
52104;SDS011;38103;42.776;23.112;2023-03-23T08:42:02;17.17;;;9.05;;
52104;SDS011;38103;42.776;23.112;2023-03-23T08:44:28;16.88;;;9.18;;
52104;SDS011;38103;42.776;23.112;2023-03-23T08:46:54;19.45;;;10.45;;
52104;SDS011;38103;42.776;23.112;2023-03-23T08:49:22;19.30;;;10.60;;
52104;SDS011;38103;42.776;23.112;2023-03-23T08:51:50;19.02;;;10.45;;
52104;SDS011;38103;42.776;23.112;2023-03-23T08:54:16;18.50;;;8.85;;
52104;SDS011;38103;42.776;23.112;2023-03-23T08:56:42;16.77;;;8.45;;
52104;SDS011;38103;42.776;23.112;2023-03-23T08:59:07;15.75;;;8.65;;
52104;SDS011;38103;42.776;23.112;2023-03-23T09:01:33;16.15;;;8.45;;
52104;SDS011;38103;42.776;23.112;2023-03-23T09:03:59;15.45;;;8.10;;
52104;SDS011;38103;42.776;23.112;2023-03-23T09:06:24;14.60;;;8.50;;
52104;SDS011;38103;42.776;23.112;2023-03-23T09:08:51;16.13;;;8.63;;
52104;SDS011;38103;42.776;23.112;2023-03-23T09:11:17;16.73;;;9.13;;
52104;SDS011;38103;42.776;23.112;2023-03-23T09:13:43;16.38;;;8.52;;
52104;SDS011;38103;42.776;23.112;2023-03-23T09:16:08;15.20;;;7.95;;
52104;SDS011;38103;42.776;23.112;2023-03-23T09:18:34;17.35;;;8.30;;
52104;SDS011;38103;42.776;23.112;2023-03-23T09:21:01;16.35;;;8.80;;
52104;SDS011;38103;42.776;23.112;2023-03-23T09:23:28;16.95;;;9.45;;
52104;SDS011;38103;42.776;23.112;2023-03-23T09:25:54;16.77;;;8.65;;
52104;SDS011;38103;42.776;23.112;2023-03-23T09:28:20;15.40;;;8.50;;
52104;SDS011;38103;42.776;23.112;2023-03-23T09:30:45;16.73;;;9.18;;
52104;SDS011;38103;42.776;23.112;2023-03-23T09:33:12;17.02;;;8.95;;
52104;SDS011;38103;42.776;23.112;2023-03-23T09:35:39;16.80;;;9.05;;
52104;SDS011;38103;42.776;23.112;2023-03-23T09:38:06;17.35;;;10.13;;
52104;SDS011;38103;42.776;23.112;2023-03-23T09:40:42;18.35;;;9.10;;
52104;SDS011;38103;42.776;23.112;2023-03-23T09:43:35;15.63;;;8.73;;
52104;SDS011;38103;42.776;23.112;2023-03-23T09:56:52;15.50;;;7.95;;
52104;SDS011;38103;42.776;23.112;2023-03-23T10:02:15;16.05;;;8.88;;
52104;SDS011;38103;42.776;23.112;2023-03-23T10:04:50;17.92;;;9.48;;
52104;SDS011;38103;42.776;23.112;2023-03-23T10:07:20;17.90;;;9.90;;
52104;SDS011;38103;42.776;23.112;2023-03-23T10:09:47;19.77;;;9.45;;
52104;SDS011;38103;42.776;23.112;2023-03-23T10:12:19;17.73;;;8.40;;
52104;SDS011;38103;42.776;23.112;2023-03-23T10:14:56;15.05;;;7.93;;
52104;SDS011;38103;42.776;23.112;2023-03-23T10:26:30;16.38;;;9.00;;
52104;SDS011;38103;42.776;23.112;2023-03-23T10:31:59;17.58;;;9.25;;
52104;SDS011;38103;42.776;23.112;2023-03-23T10:37:08;18.67;;;10.20;;
52104;SDS011;38103;42.776;23.112;2023-03-23T10:39:59;19.13;;;10.05;;
52104;SDS011;38103;42.776;23.112;2023-03-23T10:42:35;20.42;;;9.77;;
52104;SDS011;38103;42.776;23.112;2023-03-23T10:47:54;16.88;;;9.02;;
52104;SDS011;38103;42.776;23.112;2023-03-23T10:50:28;20.88;;;9.27;;
52104;SDS011;38103;42.776;23.112;2023-03-23T10:52:57;18.33;;;9.20;;
52104;SDS011;38103;42.776;23.112;2023-03-23T10:55:34;17.23;;;9.55;;
52104;SDS011;38103;42.776;23.112;2023-03-23T10:58:05;19.00;;;9.98;;
52104;SDS011;38103;42.776;23.112;2023-03-23T11:00:39;18.65;;;9.50;;
52104;SDS011;38103;42.776;23.112;2023-03-23T11:03:20;17.15;;;9.32;;
52104;SDS011;38103;42.776;23.112;2023-03-23T11:05:50;16.17;;;8.50;;
52104;SDS011;38103;42.776;23.112;2023-03-23T11:08:22;18.77;;;9.80;;
52104;SDS011;38103;42.776;23.112;2023-03-23T11:11:07;16.33;;;9.18;;
52104;SDS011;38103;42.776;23.112;2023-03-23T11:13:46;17.73;;;9.65;;
52104;SDS011;38103;42.776;23.112;2023-03-23T11:19:22;18.67;;;10.18;;
52104;SDS011;38103;42.776;23.112;2023-03-23T11:21:53;16.58;;;9.20;;
52104;SDS011;38103;42.776;23.112;2023-03-23T11:24:24;16.33;;;9.02;;
52104;SDS011;38103;42.776;23.112;2023-03-23T11:26:51;17.08;;;8.88;;
52104;SDS011;38103;42.776;23.112;2023-03-23T11:29:19;16.20;;;9.45;;
52104;SDS011;38103;42.776;23.112;2023-03-23T11:31:48;15.18;;;9.05;;
52104;SDS011;38103;42.776;23.112;2023-03-23T11:34:19;16.83;;;9.70;;
52104;SDS011;38103;42.776;23.112;2023-03-23T11:36:50;16.20;;;9.00;;
52104;SDS011;38103;42.776;23.112;2023-03-23T11:41:51;16.53;;;8.93;;
52104;SDS011;38103;42.776;23.112;2023-03-23T11:44:17;15.43;;;8.70;;
52104;SDS011;38103;42.776;23.112;2023-03-23T11:46:58;17.08;;;9.40;;
52104;SDS011;38103;42.776;23.112;2023-03-23T11:49:46;15.75;;;8.73;;
52104;SDS011;38103;42.776;23.112;2023-03-23T11:52:49;18.58;;;9.05;;
52104;SDS011;38103;42.776;23.112;2023-03-23T11:55:25;16.77;;;9.40;;
52104;SDS011;38103;42.776;23.112;2023-03-23T11:57:55;16.13;;;9.15;;
52104;SDS011;38103;42.776;23.112;2023-03-23T12:00:25;16.83;;;8.93;;
52104;SDS011;38103;42.776;23.112;2023-03-23T12:03:03;16.58;;;8.60;;
52104;SDS011;38103;42.776;23.112;2023-03-23T12:05:51;15.60;;;8.50;;
52104;SDS011;38103;42.776;23.112;2023-03-23T12:19:16;16.10;;;8.43;;
52104;SDS011;38103;42.776;23.112;2023-03-23T12:36:57;16.80;;;8.00;;
52104;SDS011;38103;42.776;23.112;2023-03-23T12:45:17;18.30;;;8.68;;
52104;SDS011;38103;42.776;23.112;2023-03-23T12:48:07;16.38;;;8.10;;
52104;SDS011;38103;42.776;23.112;2023-03-23T12:50:41;15.30;;;8.05;;
52104;SDS011;38103;42.776;23.112;2023-03-23T12:53:14;15.13;;;8.13;;
52104;SDS011;38103;42.776;23.112;2023-03-23T12:56:16;15.17;;;9.03;;
52104;SDS011;38103;42.776;23.112;2023-03-23T12:58:47;15.20;;;8.35;;
52104;SDS011;38103;42.776;23.112;2023-03-23T13:01:24;15.85;;;8.45;;
52104;SDS011;38103;42.776;23.112;2023-03-23T13:03:57;15.52;;;8.50;;
52104;SDS011;38103;42.776;23.112;2023-03-23T13:06:47;14.45;;;7.60;;
52104;SDS011;38103;42.776;23.112;2023-03-23T13:12:03;15.02;;;7.70;;
52104;SDS011;38103;42.776;23.112;2023-03-23T13:20:32;15.63;;;8.35;;
52104;SDS011;38103;42.776;23.112;2023-03-23T13:23:01;14.55;;;8.25;;
52104;SDS011;38103;42.776;23.112;2023-03-23T13:28:29;14.90;;;8.18;;
52104;SDS011;38103;42.776;23.112;2023-03-23T13:31:04;14.82;;;7.78;;
52104;SDS011;38103;42.776;23.112;2023-03-23T13:33:38;14.82;;;7.45;;
52104;SDS011;38103;42.776;23.112;2023-03-23T13:36:11;14.27;;;7.90;;
52104;SDS011;38103;42.776;23.112;2023-03-23T13:38:38;15.45;;;8.05;;
52104;SDS011;38103;42.776;23.112;2023-03-23T13:41:11;13.88;;;7.10;;
52104;SDS011;38103;42.776;23.112;2023-03-23T13:43:39;13.73;;;7.15;;
52104;SDS011;38103;42.776;23.112;2023-03-23T13:46:11;16.02;;;7.80;;
52104;SDS011;38103;42.776;23.112;2023-03-23T13:54:29;14.00;;;7.75;;
52104;SDS011;38103;42.776;23.112;2023-03-23T13:59:35;13.13;;;6.53;;
52104;SDS011;38103;42.776;23.112;2023-03-23T14:02:29;13.93;;;6.90;;
52104;SDS011;38103;42.776;23.112;2023-03-23T14:05:07;13.10;;;6.40;;
52104;SDS011;38103;42.776;23.112;2023-03-23T14:16:31;13.95;;;7.22;;
52104;SDS011;38103;42.776;23.112;2023-03-23T14:18:58;13.93;;;7.43;;
52104;SDS011;38103;42.776;23.112;2023-03-23T14:24:24;13.07;;;6.20;;
52104;SDS011;38103;42.776;23.112;2023-03-23T14:26:52;14.15;;;6.72;;
52104;SDS011;38103;42.776;23.112;2023-03-23T14:29:26;15.88;;;6.90;;
52104;SDS011;38103;42.776;23.112;2023-03-23T14:31:55;13.57;;;6.50;;
52104;SDS011;38103;42.776;23.112;2023-03-23T14:34:27;14.07;;;7.35;;
52104;SDS011;38103;42.776;23.112;2023-03-23T14:36:56;14.98;;;5.97;;
52104;SDS011;38103;42.776;23.112;2023-03-23T14:41:49;13.13;;;6.38;;
52104;SDS011;38103;42.776;23.112;2023-03-23T14:44:25;13.63;;;6.10;;
52104;SDS011;38103;42.776;23.112;2023-03-23T14:46:54;14.18;;;6.32;;
52104;SDS011;38103;42.776;23.112;2023-03-23T14:49:27;13.23;;;5.80;;
52104;SDS011;38103;42.776;23.112;2023-03-23T14:51:56;12.07;;;6.10;;
52104;SDS011;38103;42.776;23.112;2023-03-23T14:54:22;13.18;;;7.15;;
52104;SDS011;38103;42.776;23.112;2023-03-23T14:56:50;12.65;;;5.95;;
52104;SDS011;38103;42.776;23.112;2023-03-23T14:59:16;12.70;;;5.95;;
52104;SDS011;38103;42.776;23.112;2023-03-23T15:01:41;13.02;;;6.53;;
52104;SDS011;38103;42.776;23.112;2023-03-23T15:06:41;12.45;;;6.70;;
52104;SDS011;38103;42.776;23.112;2023-03-23T15:09:13;13.10;;;6.40;;
52104;SDS011;38103;42.776;23.112;2023-03-23T15:11:49;13.15;;;6.47;;
52104;SDS011;38103;42.776;23.112;2023-03-23T15:14:18;14.57;;;6.70;;
52104;SDS011;38103;42.776;23.112;2023-03-23T15:16:47;12.90;;;6.30;;
52104;SDS011;38103;42.776;23.112;2023-03-23T15:19:25;15.30;;;6.88;;
52104;SDS011;38103;42.776;23.112;2023-03-23T15:21:57;12.20;;;5.97;;
52104;SDS011;38103;42.776;23.112;2023-03-23T15:24:36;14.07;;;6.63;;
52104;SDS011;38103;42.776;23.112;2023-03-23T15:29:31;12.73;;;6.07;;
52104;SDS011;38103;42.776;23.112;2023-03-23T15:31:56;12.63;;;5.93;;
52104;SDS011;38103;42.776;23.112;2023-03-23T15:37:00;13.27;;;7.07;;
52104;SDS011;38103;42.776;23.112;2023-03-23T15:39:29;13.13;;;6.28;;
52104;SDS011;38103;42.776;23.112;2023-03-23T15:41:55;12.32;;;6.50;;
52104;SDS011;38103;42.776;23.112;2023-03-23T15:44:23;17.90;;;6.32;;
52104;SDS011;38103;42.776;23.112;2023-03-23T15:46:52;20.33;;;6.72;;
52104;SDS011;38103;42.776;23.112;2023-03-23T15:49:26;13.57;;;6.38;;
52104;SDS011;38103;42.776;23.112;2023-03-23T15:51:51;13.15;;;6.47;;
52104;SDS011;38103;42.776;23.112;2023-03-23T15:54:17;15.65;;;6.63;;
52104;SDS011;38103;42.776;23.112;2023-03-23T15:56:42;16.00;;;6.75;;
52104;SDS011;38103;42.776;23.112;2023-03-23T15:59:09;15.05;;;6.50;;
52104;SDS011;38103;42.776;23.112;2023-03-23T16:01:35;14.23;;;6.55;;
52104;SDS011;38103;42.776;23.112;2023-03-23T16:04:10;11.93;;;6.13;;
52104;SDS011;38103;42.776;23.112;2023-03-23T16:06:39;20.70;;;6.97;;
52104;SDS011;38103;42.776;23.112;2023-03-23T16:09:05;15.18;;;6.90;;
52104;SDS011;38103;42.776;23.112;2023-03-23T16:11:35;14.30;;;6.85;;
52104;SDS011;38103;42.776;23.112;2023-03-23T16:14:01;14.20;;;7.15;;
52104;SDS011;38103;42.776;23.112;2023-03-23T16:16:28;15.18;;;7.28;;
52104;SDS011;38103;42.776;23.112;2023-03-23T16:18:58;17.08;;;7.75;;
52104;SDS011;38103;42.776;23.112;2023-03-23T16:21:24;14.00;;;7.63;;
52104;SDS011;38103;42.776;23.112;2023-03-23T16:23:50;14.50;;;7.68;;
52104;SDS011;38103;42.776;23.112;2023-03-23T16:26:15;14.18;;;7.50;;
52104;SDS011;38103;42.776;23.112;2023-03-23T16:28:41;16.52;;;7.40;;
52104;SDS011;38103;42.776;23.112;2023-03-23T16:31:07;13.80;;;7.25;;
52104;SDS011;38103;42.776;23.112;2023-03-23T16:33:33;15.18;;;8.23;;
52104;SDS011;38103;42.776;23.112;2023-03-23T16:35:58;16.70;;;7.90;;
52104;SDS011;38103;42.776;23.112;2023-03-23T16:38:24;15.73;;;8.60;;